sensor_id;sensor_type;location;lat;lon;timestamp;P1;durP1;ratioP1;P2;durP2;ratioP2
52208;SDS011;38507;53.132;6.394;2023-05-14T00:01:24;15.43;;;7.25;;
52208;SDS011;38507;53.132;6.394;2023-05-14T00:03:50;13.07;;;7.72;;
52208;SDS011;38507;53.132;6.394;2023-05-14T00:06:15;14.98;;;7.30;;
52208;SDS011;38507;53.132;6.394;2023-05-14T00:08:41;12.18;;;7.53;;
52208;SDS011;38507;53.132;6.394;2023-05-14T00:11:07;14.15;;;7.05;;
52208;SDS011;38507;53.132;6.394;2023-05-14T00:13:33;14.63;;;8.18;;
52208;SDS011;38507;53.132;6.394;2023-05-14T00:15:59;16.58;;;7.70;;
52208;SDS011;38507;53.132;6.394;2023-05-14T00:18:25;9.75;;;7.38;;
52208;SDS011;38507;53.132;6.394;2023-05-14T00:20:51;18.40;;;7.50;;
52208;SDS011;38507;53.132;6.394;2023-05-14T00:23:19;16.52;;;7.57;;
52208;SDS011;38507;53.132;6.394;2023-05-14T00:25:45;13.43;;;7.75;;
52208;SDS011;38507;53.132;6.394;2023-05-14T00:28:11;14.50;;;7.25;;
52208;SDS011;38507;53.132;6.394;2023-05-14T00:30:37;17.08;;;8.25;;
52208;SDS011;38507;53.132;6.394;2023-05-14T00:33:05;11.20;;;7.43;;
52208;SDS011;38507;53.132;6.394;2023-05-14T00:35:31;16.10;;;7.63;;
52208;SDS011;38507;53.132;6.394;2023-05-14T00:37:59;15.50;;;8.13;;
52208;SDS011;38507;53.132;6.394;2023-05-14T00:40:26;12.60;;;7.13;;
52208;SDS011;38507;53.132;6.394;2023-05-14T00:42:52;19.23;;;7.72;;
52208;SDS011;38507;53.132;6.394;2023-05-14T00:45:18;15.68;;;6.88;;
52208;SDS011;38507;53.132;6.394;2023-05-14T00:47:44;14.50;;;7.40;;
52208;SDS011;38507;53.132;6.394;2023-05-14T00:50:10;18.98;;;8.05;;
52208;SDS011;38507;53.132;6.394;2023-05-14T00:52:37;13.65;;;6.85;;
52208;SDS011;38507;53.132;6.394;2023-05-14T00:55:04;16.65;;;7.55;;
52208;SDS011;38507;53.132;6.394;2023-05-14T00:57:31;14.65;;;8.02;;
52208;SDS011;38507;53.132;6.394;2023-05-14T00:59:57;15.48;;;8.07;;
52208;SDS011;38507;53.132;6.394;2023-05-14T01:02:23;18.58;;;7.70;;
52208;SDS011;38507;53.132;6.394;2023-05-14T01:04:50;17.52;;;7.32;;
52208;SDS011;38507;53.132;6.394;2023-05-14T01:10:12;12.02;;;6.90;;
52208;SDS011;38507;53.132;6.394;2023-05-14T01:12:49;15.18;;;7.25;;
52208;SDS011;38507;53.132;6.394;2023-05-14T01:15:29;11.95;;;6.38;;
52208;SDS011;38507;53.132;6.394;2023-05-14T01:17:58;17.35;;;7.32;;
52208;SDS011;38507;53.132;6.394;2023-05-14T01:20:28;15.60;;;7.25;;
52208;SDS011;38507;53.132;6.394;2023-05-14T01:22:54;18.55;;;7.28;;
52208;SDS011;38507;53.132;6.394;2023-05-14T01:25:20;16.38;;;6.80;;
52208;SDS011;38507;53.132;6.394;2023-05-14T01:33:01;17.58;;;6.95;;
52208;SDS011;38507;53.132;6.394;2023-05-14T01:35:30;11.65;;;6.18;;
52208;SDS011;38507;53.132;6.394;2023-05-14T01:37:58;11.73;;;6.20;;
52208;SDS011;38507;53.132;6.394;2023-05-14T01:40:25;13.70;;;6.85;;
52208;SDS011;38507;53.132;6.394;2023-05-14T01:42:52;12.68;;;6.85;;
52208;SDS011;38507;53.132;6.394;2023-05-14T01:45:19;10.55;;;5.90;;
52208;SDS011;38507;53.132;6.394;2023-05-14T01:47:45;12.05;;;6.40;;
52208;SDS011;38507;53.132;6.394;2023-05-14T01:50:11;13.65;;;6.45;;
52208;SDS011;38507;53.132;6.394;2023-05-14T01:52:36;15.02;;;6.00;;
52208;SDS011;38507;53.132;6.394;2023-05-14T01:55:02;14.05;;;5.55;;
52208;SDS011;38507;53.132;6.394;2023-05-14T01:57:29;15.80;;;6.50;;
52208;SDS011;38507;53.132;6.394;2023-05-14T01:59:55;19.92;;;7.43;;
52208;SDS011;38507;53.132;6.394;2023-05-14T02:02:20;14.68;;;7.55;;
52208;SDS011;38507;53.132;6.394;2023-05-14T02:04:46;19.08;;;8.32;;
52208;SDS011;38507;53.132;6.394;2023-05-14T02:07:12;12.30;;;7.88;;
52208;SDS011;38507;53.132;6.394;2023-05-14T02:09:37;18.60;;;8.68;;
52208;SDS011;38507;53.132;6.394;2023-05-14T02:12:07;14.85;;;8.38;;
52208;SDS011;38507;53.132;6.394;2023-05-14T02:14:33;14.85;;;7.95;;
52208;SDS011;38507;53.132;6.394;2023-05-14T02:16:59;16.33;;;9.07;;
52208;SDS011;38507;53.132;6.394;2023-05-14T02:19:24;17.98;;;8.48;;
52208;SDS011;38507;53.132;6.394;2023-05-14T02:21:50;14.02;;;8.80;;
52208;SDS011;38507;53.132;6.394;2023-05-14T02:24:16;17.48;;;8.55;;
52208;SDS011;38507;53.132;6.394;2023-05-14T02:26:41;13.68;;;7.65;;
52208;SDS011;38507;53.132;6.394;2023-05-14T02:29:07;16.48;;;8.13;;
52208;SDS011;38507;53.132;6.394;2023-05-14T02:31:33;13.52;;;7.65;;
52208;SDS011;38507;53.132;6.394;2023-05-14T02:34:01;17.48;;;8.30;;
52208;SDS011;38507;53.132;6.394;2023-05-14T02:36:28;17.85;;;9.45;;
52208;SDS011;38507;53.132;6.394;2023-05-14T02:38:53;13.27;;;8.10;;
52208;SDS011;38507;53.132;6.394;2023-05-14T02:41:19;21.77;;;8.50;;
52208;SDS011;38507;53.132;6.394;2023-05-14T02:43:45;18.73;;;8.85;;
52208;SDS011;38507;53.132;6.394;2023-05-14T02:46:11;15.27;;;7.80;;
52208;SDS011;38507;53.132;6.394;2023-05-14T02:48:37;16.10;;;8.65;;
52208;SDS011;38507;53.132;6.394;2023-05-14T02:51:02;15.43;;;8.20;;
52208;SDS011;38507;53.132;6.394;2023-05-14T02:53:28;17.30;;;8.70;;
52208;SDS011;38507;53.132;6.394;2023-05-14T02:55:54;20.23;;;7.55;;
52208;SDS011;38507;53.132;6.394;2023-05-14T02:58:20;18.23;;;8.48;;
52208;SDS011;38507;53.132;6.394;2023-05-14T03:00:45;15.43;;;7.80;;
52208;SDS011;38507;53.132;6.394;2023-05-14T03:03:11;16.15;;;7.88;;
52208;SDS011;38507;53.132;6.394;2023-05-14T03:05:37;20.45;;;8.80;;
52208;SDS011;38507;53.132;6.394;2023-05-14T03:08:02;23.83;;;9.05;;
52208;SDS011;38507;53.132;6.394;2023-05-14T03:10:28;20.85;;;9.93;;
52208;SDS011;38507;53.132;6.394;2023-05-14T03:12:54;17.30;;;8.70;;
52208;SDS011;38507;53.132;6.394;2023-05-14T03:15:19;22.27;;;9.10;;
52208;SDS011;38507;53.132;6.394;2023-05-14T03:17:45;15.50;;;8.43;;
52208;SDS011;38507;53.132;6.394;2023-05-14T03:20:11;19.80;;;9.27;;
52208;SDS011;38507;53.132;6.394;2023-05-14T03:22:37;20.15;;;8.65;;
52208;SDS011;38507;53.132;6.394;2023-05-14T03:25:02;28.80;;;10.25;;
52208;SDS011;38507;53.132;6.394;2023-05-14T03:27:28;17.48;;;8.60;;
52208;SDS011;38507;53.132;6.394;2023-05-14T03:29:54;22.15;;;8.93;;
52208;SDS011;38507;53.132;6.394;2023-05-14T03:32:19;21.05;;;10.05;;
52208;SDS011;38507;53.132;6.394;2023-05-14T03:34:45;22.70;;;9.07;;
52208;SDS011;38507;53.132;6.394;2023-05-14T03:37:11;15.57;;;8.85;;
52208;SDS011;38507;53.132;6.394;2023-05-14T03:39:36;15.95;;;9.15;;
52208;SDS011;38507;53.132;6.394;2023-05-14T03:42:02;18.58;;;8.65;;
52208;SDS011;38507;53.132;6.394;2023-05-14T03:44:28;20.63;;;10.25;;
52208;SDS011;38507;53.132;6.394;2023-05-14T03:46:54;18.35;;;9.02;;
52208;SDS011;38507;53.132;6.394;2023-05-14T03:49:20;16.08;;;10.13;;
52208;SDS011;38507;53.132;6.394;2023-05-14T03:51:45;21.45;;;11.13;;
52208;SDS011;38507;53.132;6.394;2023-05-14T03:54:11;24.23;;;11.02;;
52208;SDS011;38507;53.132;6.394;2023-05-14T03:56:36;25.88;;;10.32;;
52208;SDS011;38507;53.132;6.394;2023-05-14T03:59:02;23.20;;;11.05;;
52208;SDS011;38507;53.132;6.394;2023-05-14T04:01:28;22.52;;;11.55;;
52208;SDS011;38507;53.132;6.394;2023-05-14T04:03:53;21.90;;;10.45;;
52208;SDS011;38507;53.132;6.394;2023-05-14T04:06:19;23.02;;;11.63;;
52208;SDS011;38507;53.132;6.394;2023-05-14T04:08:45;27.88;;;11.52;;
52208;SDS011;38507;53.132;6.394;2023-05-14T04:11:10;26.92;;;11.50;;
52208;SDS011;38507;53.132;6.394;2023-05-14T04:13:36;24.10;;;10.85;;
52208;SDS011;38507;53.132;6.394;2023-05-14T04:16:01;21.15;;;10.70;;
52208;SDS011;38507;53.132;6.394;2023-05-14T04:18:27;21.95;;;11.02;;
52208;SDS011;38507;53.132;6.394;2023-05-14T04:20:53;25.33;;;10.10;;
52208;SDS011;38507;53.132;6.394;2023-05-14T04:23:19;21.40;;;10.55;;
52208;SDS011;38507;53.132;6.394;2023-05-14T04:25:45;24.23;;;10.25;;
52208;SDS011;38507;53.132;6.394;2023-05-14T04:28:11;20.98;;;8.90;;
52208;SDS011;38507;53.132;6.394;2023-05-14T04:30:36;26.50;;;9.57;;
52208;SDS011;38507;53.132;6.394;2023-05-14T04:33:02;21.55;;;8.38;;
52208;SDS011;38507;53.132;6.394;2023-05-14T04:35:28;18.40;;;8.50;;
52208;SDS011;38507;53.132;6.394;2023-05-14T04:37:53;20.75;;;8.07;;
52208;SDS011;38507;53.132;6.394;2023-05-14T04:40:19;25.05;;;8.75;;
52208;SDS011;38507;53.132;6.394;2023-05-14T04:42:44;21.48;;;7.72;;
52208;SDS011;38507;53.132;6.394;2023-05-14T04:45:10;23.50;;;8.13;;
52208;SDS011;38507;53.132;6.394;2023-05-14T04:47:37;19.42;;;7.65;;
52208;SDS011;38507;53.132;6.394;2023-05-14T04:50:03;19.75;;;8.10;;
52208;SDS011;38507;53.132;6.394;2023-05-14T04:52:30;22.88;;;8.13;;
52208;SDS011;38507;53.132;6.394;2023-05-14T04:54:56;19.20;;;7.63;;
52208;SDS011;38507;53.132;6.394;2023-05-14T04:57:22;28.23;;;9.13;;
52208;SDS011;38507;53.132;6.394;2023-05-14T04:59:47;26.15;;;7.93;;
52208;SDS011;38507;53.132;6.394;2023-05-14T05:02:13;24.50;;;8.10;;
52208;SDS011;38507;53.132;6.394;2023-05-14T05:04:39;25.23;;;9.02;;
52208;SDS011;38507;53.132;6.394;2023-05-14T05:07:04;20.73;;;8.82;;
52208;SDS011;38507;53.132;6.394;2023-05-14T05:09:30;19.83;;;8.55;;
52208;SDS011;38507;53.132;6.394;2023-05-14T05:11:56;24.08;;;8.95;;
52208;SDS011;38507;53.132;6.394;2023-05-14T05:14:21;22.58;;;8.30;;
52208;SDS011;38507;53.132;6.394;2023-05-14T05:16:47;20.77;;;8.68;;
52208;SDS011;38507;53.132;6.394;2023-05-14T05:19:13;20.15;;;9.88;;
52208;SDS011;38507;53.132;6.394;2023-05-14T05:21:38;25.48;;;9.05;;
52208;SDS011;38507;53.132;6.394;2023-05-14T05:24:05;23.92;;;9.52;;
52208;SDS011;38507;53.132;6.394;2023-05-14T05:26:31;24.80;;;9.65;;
52208;SDS011;38507;53.132;6.394;2023-05-14T05:29:00;26.45;;;9.52;;
52208;SDS011;38507;53.132;6.394;2023-05-14T05:31:27;26.15;;;9.45;;
52208;SDS011;38507;53.132;6.394;2023-05-14T05:33:52;27.75;;;9.25;;
52208;SDS011;38507;53.132;6.394;2023-05-14T05:36:18;19.88;;;9.13;;
52208;SDS011;38507;53.132;6.394;2023-05-14T05:38:44;21.58;;;9.90;;
52208;SDS011;38507;53.132;6.394;2023-05-14T05:41:09;21.70;;;8.10;;
52208;SDS011;38507;53.132;6.394;2023-05-14T05:43:35;19.08;;;8.48;;
52208;SDS011;38507;53.132;6.394;2023-05-14T05:46:01;27.45;;;9.18;;
52208;SDS011;38507;53.132;6.394;2023-05-14T05:48:26;29.23;;;8.93;;
52208;SDS011;38507;53.132;6.394;2023-05-14T05:50:52;23.55;;;8.85;;
52208;SDS011;38507;53.132;6.394;2023-05-14T05:53:18;20.25;;;8.88;;
52208;SDS011;38507;53.132;6.394;2023-05-14T05:55:43;26.65;;;9.15;;
52208;SDS011;38507;53.132;6.394;2023-05-14T05:58:09;17.48;;;8.48;;
52208;SDS011;38507;53.132;6.394;2023-05-14T06:00:35;23.15;;;9.07;;
52208;SDS011;38507;53.132;6.394;2023-05-14T06:03:00;23.77;;;8.25;;
52208;SDS011;38507;53.132;6.394;2023-05-14T06:05:26;26.88;;;8.43;;
52208;SDS011;38507;53.132;6.394;2023-05-14T06:07:52;26.05;;;9.60;;
52208;SDS011;38507;53.132;6.394;2023-05-14T06:10:18;24.85;;;7.70;;
52208;SDS011;38507;53.132;6.394;2023-05-14T06:12:43;21.45;;;7.85;;
52208;SDS011;38507;53.132;6.394;2023-05-14T06:15:09;18.50;;;7.47;;
52208;SDS011;38507;53.132;6.394;2023-05-14T06:17:36;23.63;;;7.30;;
52208;SDS011;38507;53.132;6.394;2023-05-14T06:20:02;16.08;;;7.93;;
52208;SDS011;38507;53.132;6.394;2023-05-14T06:22:32;16.52;;;6.72;;
52208;SDS011;38507;53.132;6.394;2023-05-14T06:24:58;22.58;;;7.43;;
52208;SDS011;38507;53.132;6.394;2023-05-14T06:27:23;20.20;;;6.25;;
52208;SDS011;38507;53.132;6.394;2023-05-14T06:29:49;17.02;;;6.97;;
52208;SDS011;38507;53.132;6.394;2023-05-14T06:32:15;22.70;;;6.63;;
52208;SDS011;38507;53.132;6.394;2023-05-14T06:34:41;14.63;;;6.18;;
52208;SDS011;38507;53.132;6.394;2023-05-14T06:37:07;22.42;;;6.63;;
52208;SDS011;38507;53.132;6.394;2023-05-14T06:39:34;22.20;;;6.55;;
52208;SDS011;38507;53.132;6.394;2023-05-14T06:42:01;18.92;;;6.13;;
52208;SDS011;38507;53.132;6.394;2023-05-14T06:44:27;22.05;;;6.60;;
52208;SDS011;38507;53.132;6.394;2023-05-14T06:46:52;20.00;;;7.32;;
52208;SDS011;38507;53.132;6.394;2023-05-14T06:49:18;18.35;;;7.13;;
52208;SDS011;38507;53.132;6.394;2023-05-14T06:51:44;15.45;;;6.10;;
52208;SDS011;38507;53.132;6.394;2023-05-14T06:54:10;13.50;;;6.03;;
52208;SDS011;38507;53.132;6.394;2023-05-14T06:56:36;17.05;;;6.40;;
52208;SDS011;38507;53.132;6.394;2023-05-14T06:59:01;14.07;;;5.97;;
52208;SDS011;38507;53.132;6.394;2023-05-14T07:01:27;22.92;;;6.35;;
52208;SDS011;38507;53.132;6.394;2023-05-14T07:03:53;15.77;;;6.00;;
52208;SDS011;38507;53.132;6.394;2023-05-14T07:06:18;19.15;;;6.65;;
52208;SDS011;38507;53.132;6.394;2023-05-14T07:08:44;17.17;;;6.25;;
52208;SDS011;38507;53.132;6.394;2023-05-14T07:11:12;19.15;;;6.47;;
52208;SDS011;38507;53.132;6.394;2023-05-14T07:13:38;13.05;;;6.32;;
52208;SDS011;38507;53.132;6.394;2023-05-14T07:16:05;20.15;;;6.50;;
52208;SDS011;38507;53.132;6.394;2023-05-14T07:18:35;20.88;;;6.40;;
52208;SDS011;38507;53.132;6.394;2023-05-14T07:21:01;17.00;;;6.07;;
52208;SDS011;38507;53.132;6.394;2023-05-14T07:23:29;17.55;;;5.43;;
52208;SDS011;38507;53.132;6.394;2023-05-14T07:25:54;14.07;;;6.47;;
52208;SDS011;38507;53.132;6.394;2023-05-14T07:28:20;17.92;;;5.88;;
52208;SDS011;38507;53.132;6.394;2023-05-14T07:30:45;12.25;;;5.50;;
52208;SDS011;38507;53.132;6.394;2023-05-14T07:33:11;19.45;;;7.50;;
52208;SDS011;38507;53.132;6.394;2023-05-14T07:35:37;15.80;;;6.90;;
52208;SDS011;38507;53.132;6.394;2023-05-14T07:38:02;15.23;;;6.00;;
52208;SDS011;38507;53.132;6.394;2023-05-14T07:40:29;14.82;;;6.30;;
52208;SDS011;38507;53.132;6.394;2023-05-14T07:42:55;16.02;;;6.18;;
52208;SDS011;38507;53.132;6.394;2023-05-14T07:45:20;17.05;;;6.30;;
52208;SDS011;38507;53.132;6.394;2023-05-14T07:47:46;15.18;;;6.00;;
52208;SDS011;38507;53.132;6.394;2023-05-14T07:50:16;13.02;;;6.10;;
52208;SDS011;38507;53.132;6.394;2023-05-14T07:52:42;15.25;;;5.88;;
52208;SDS011;38507;53.132;6.394;2023-05-14T07:55:08;16.77;;;5.40;;
52208;SDS011;38507;53.132;6.394;2023-05-14T07:57:34;18.63;;;6.03;;
52208;SDS011;38507;53.132;6.394;2023-05-14T08:00:01;18.13;;;6.63;;
52208;SDS011;38507;53.132;6.394;2023-05-14T08:02:28;16.75;;;5.95;;
52208;SDS011;38507;53.132;6.394;2023-05-14T08:04:53;15.85;;;5.28;;
52208;SDS011;38507;53.132;6.394;2023-05-14T08:07:19;16.55;;;6.43;;
52208;SDS011;38507;53.132;6.394;2023-05-14T08:09:45;13.77;;;5.65;;
52208;SDS011;38507;53.132;6.394;2023-05-14T08:12:11;13.80;;;5.15;;
52208;SDS011;38507;53.132;6.394;2023-05-14T08:14:37;12.80;;;5.20;;
52208;SDS011;38507;53.132;6.394;2023-05-14T08:17:03;16.92;;;5.30;;
52208;SDS011;38507;53.132;6.394;2023-05-14T08:19:28;16.25;;;4.95;;
52208;SDS011;38507;53.132;6.394;2023-05-14T08:21:54;16.60;;;4.53;;
52208;SDS011;38507;53.132;6.394;2023-05-14T08:24:20;17.85;;;4.95;;
52208;SDS011;38507;53.132;6.394;2023-05-14T08:26:45;20.48;;;5.93;;
52208;SDS011;38507;53.132;6.394;2023-05-14T08:29:11;11.07;;;4.57;;
52208;SDS011;38507;53.132;6.394;2023-05-14T08:31:37;14.20;;;4.57;;
52208;SDS011;38507;53.132;6.394;2023-05-14T08:34:02;14.23;;;4.60;;
52208;SDS011;38507;53.132;6.394;2023-05-14T08:36:28;15.30;;;4.93;;
52208;SDS011;38507;53.132;6.394;2023-05-14T08:38:53;14.90;;;6.15;;
52208;SDS011;38507;53.132;6.394;2023-05-14T08:41:19;16.13;;;5.38;;
52208;SDS011;38507;53.132;6.394;2023-05-14T08:43:57;16.35;;;4.97;;
52208;SDS011;38507;53.132;6.394;2023-05-14T08:46:37;15.20;;;4.85;;
52208;SDS011;38507;53.132;6.394;2023-05-14T08:51:57;14.30;;;4.95;;
52208;SDS011;38507;53.132;6.394;2023-05-14T08:54:24;19.70;;;4.85;;
52208;SDS011;38507;53.132;6.394;2023-05-14T08:56:51;21.42;;;6.20;;
52208;SDS011;38507;53.132;6.394;2023-05-14T08:59:17;22.67;;;12.32;;
52208;SDS011;38507;53.132;6.394;2023-05-14T09:01:45;15.70;;;5.15;;
52208;SDS011;38507;53.132;6.394;2023-05-14T09:04:15;15.18;;;5.20;;
52208;SDS011;38507;53.132;6.394;2023-05-14T09:06:45;14.73;;;5.32;;
52208;SDS011;38507;53.132;6.394;2023-05-14T09:09:13;14.18;;;5.18;;
52208;SDS011;38507;53.132;6.394;2023-05-14T09:11:40;11.43;;;4.30;;
52208;SDS011;38507;53.132;6.394;2023-05-14T09:14:06;13.77;;;4.57;;
52208;SDS011;38507;53.132;6.394;2023-05-14T09:16:33;12.82;;;4.50;;
52208;SDS011;38507;53.132;6.394;2023-05-14T09:19:01;14.45;;;4.88;;
52208;SDS011;38507;53.132;6.394;2023-05-14T09:21:32;18.25;;;5.32;;
52208;SDS011;38507;53.132;6.394;2023-05-14T09:23:58;20.45;;;6.57;;
52208;SDS011;38507;53.132;6.394;2023-05-14T09:26:25;23.67;;;14.40;;
52208;SDS011;38507;53.132;6.394;2023-05-14T09:28:54;13.95;;;5.35;;
52208;SDS011;38507;53.132;6.394;2023-05-14T09:31:22;13.48;;;5.25;;
52208;SDS011;38507;53.132;6.394;2023-05-14T09:33:51;13.10;;;4.80;;
52208;SDS011;38507;53.132;6.394;2023-05-14T09:36:17;17.77;;;5.22;;
52208;SDS011;38507;53.132;6.394;2023-05-14T09:38:43;15.20;;;5.35;;
52208;SDS011;38507;53.132;6.394;2023-05-14T09:41:09;15.52;;;5.13;;
52208;SDS011;38507;53.132;6.394;2023-05-14T09:43:35;14.73;;;5.32;;
52208;SDS011;38507;53.132;6.394;2023-05-14T09:46:01;12.13;;;4.65;;
52208;SDS011;38507;53.132;6.394;2023-05-14T09:48:27;14.10;;;4.55;;
52208;SDS011;38507;53.132;6.394;2023-05-14T09:50:52;12.80;;;5.20;;
52208;SDS011;38507;53.132;6.394;2023-05-14T09:53:19;14.75;;;5.53;;
52208;SDS011;38507;53.132;6.394;2023-05-14T09:55:44;14.25;;;4.90;;
52208;SDS011;38507;53.132;6.394;2023-05-14T09:58:10;15.23;;;5.95;;
52208;SDS011;38507;53.132;6.394;2023-05-14T10:00:38;12.93;;;4.55;;
52208;SDS011;38507;53.132;6.394;2023-05-14T10:03:07;18.20;;;4.50;;
52208;SDS011;38507;53.132;6.394;2023-05-14T10:05:36;13.80;;;4.50;;
52208;SDS011;38507;53.132;6.394;2023-05-14T10:08:09;11.43;;;4.53;;
52208;SDS011;38507;53.132;6.394;2023-05-14T10:10:49;11.30;;;4.68;;
52208;SDS011;38507;53.132;6.394;2023-05-14T10:13:17;13.85;;;4.57;;
52208;SDS011;38507;53.132;6.394;2023-05-14T10:15:56;13.27;;;4.43;;
52208;SDS011;38507;53.132;6.394;2023-05-14T10:18:29;18.27;;;5.05;;
52208;SDS011;38507;53.132;6.394;2023-05-14T10:21:03;13.02;;;5.07;;
52208;SDS011;38507;53.132;6.394;2023-05-14T10:23:29;12.30;;;4.60;;
52208;SDS011;38507;53.132;6.394;2023-05-14T10:25:56;13.60;;;4.47;;
52208;SDS011;38507;53.132;6.394;2023-05-14T10:28:23;9.65;;;4.72;;
52208;SDS011;38507;53.132;6.394;2023-05-14T10:30:49;11.57;;;4.85;;
52208;SDS011;38507;53.132;6.394;2023-05-14T10:33:15;13.23;;;3.95;;
52208;SDS011;38507;53.132;6.394;2023-05-14T10:38:36;12.48;;;4.70;;
52208;SDS011;38507;53.132;6.394;2023-05-14T10:41:04;9.30;;;4.55;;
52208;SDS011;38507;53.132;6.394;2023-05-14T10:43:35;15.30;;;4.53;;
52208;SDS011;38507;53.132;6.394;2023-05-14T10:46:02;11.05;;;4.38;;
52208;SDS011;38507;53.132;6.394;2023-05-14T10:48:29;12.05;;;4.55;;
52208;SDS011;38507;53.132;6.394;2023-05-14T10:50:56;13.20;;;4.30;;
52208;SDS011;38507;53.132;6.394;2023-05-14T10:53:37;10.98;;;4.25;;
52208;SDS011;38507;53.132;6.394;2023-05-14T10:56:10;12.23;;;5.13;;
52208;SDS011;38507;53.132;6.394;2023-05-14T10:58:38;15.32;;;4.95;;
52208;SDS011;38507;53.132;6.394;2023-05-14T11:01:08;11.13;;;4.32;;
52208;SDS011;38507;53.132;6.394;2023-05-14T11:03:39;11.07;;;4.85;;
52208;SDS011;38507;53.132;6.394;2023-05-14T11:06:09;17.98;;;5.85;;
52208;SDS011;38507;53.132;6.394;2023-05-14T11:08:37;13.13;;;3.90;;
52208;SDS011;38507;53.132;6.394;2023-05-14T11:11:04;10.68;;;4.32;;
52208;SDS011;38507;53.132;6.394;2023-05-14T11:13:30;10.02;;;4.45;;
52208;SDS011;38507;53.132;6.394;2023-05-14T11:15:57;12.30;;;4.53;;
52208;SDS011;38507;53.132;6.394;2023-05-14T11:18:28;11.07;;;4.70;;
52208;SDS011;38507;53.132;6.394;2023-05-14T11:20:58;12.05;;;4.88;;
52208;SDS011;38507;53.132;6.394;2023-05-14T11:23:24;10.25;;;4.50;;
52208;SDS011;38507;53.132;6.394;2023-05-14T11:25:51;10.77;;;4.60;;
52208;SDS011;38507;53.132;6.394;2023-05-14T11:28:25;8.57;;;4.60;;
52208;SDS011;38507;53.132;6.394;2023-05-14T11:30:51;9.30;;;3.85;;
52208;SDS011;38507;53.132;6.394;2023-05-14T11:33:18;14.07;;;4.57;;
52208;SDS011;38507;53.132;6.394;2023-05-14T11:35:44;9.20;;;4.30;;
52208;SDS011;38507;53.132;6.394;2023-05-14T11:38:14;8.57;;;4.00;;
52208;SDS011;38507;53.132;6.394;2023-05-14T11:40:41;12.45;;;3.92;;
52208;SDS011;38507;53.132;6.394;2023-05-14T11:43:15;10.48;;;4.25;;
52208;SDS011;38507;53.132;6.394;2023-05-14T11:45:40;11.85;;;4.10;;
52208;SDS011;38507;53.132;6.394;2023-05-14T11:48:12;8.57;;;3.70;;
52208;SDS011;38507;53.132;6.394;2023-05-14T11:50:43;8.40;;;4.15;;
52208;SDS011;38507;53.132;6.394;2023-05-14T11:53:14;10.48;;;4.28;;
52208;SDS011;38507;53.132;6.394;2023-05-14T11:55:41;11.18;;;3.90;;
52208;SDS011;38507;53.132;6.394;2023-05-14T11:58:07;11.85;;;4.68;;
52208;SDS011;38507;53.132;6.394;2023-05-14T12:00:33;11.60;;;4.28;;
52208;SDS011;38507;53.132;6.394;2023-05-14T12:02:58;9.68;;;4.80;;
52208;SDS011;38507;53.132;6.394;2023-05-14T12:05:24;11.73;;;4.00;;
52208;SDS011;38507;53.132;6.394;2023-05-14T12:07:50;10.23;;;4.00;;
52208;SDS011;38507;53.132;6.394;2023-05-14T12:10:16;8.10;;;4.22;;
52208;SDS011;38507;53.132;6.394;2023-05-14T12:12:44;10.35;;;4.32;;
52208;SDS011;38507;53.132;6.394;2023-05-14T12:15:11;9.55;;;3.83;;
52208;SDS011;38507;53.132;6.394;2023-05-14T12:17:38;9.63;;;3.90;;
52208;SDS011;38507;53.132;6.394;2023-05-14T12:20:04;10.63;;;3.65;;
52208;SDS011;38507;53.132;6.394;2023-05-14T12:22:34;12.13;;;3.78;;
52208;SDS011;38507;53.132;6.394;2023-05-14T12:25:00;10.52;;;3.47;;
52208;SDS011;38507;53.132;6.394;2023-05-14T12:27:26;6.90;;;3.25;;
52208;SDS011;38507;53.132;6.394;2023-05-14T12:32:32;11.70;;;3.92;;
52208;SDS011;38507;53.132;6.394;2023-05-14T12:34:59;15.57;;;4.32;;
52208;SDS011;38507;53.132;6.394;2023-05-14T12:37:27;9.00;;;3.85;;
52208;SDS011;38507;53.132;6.394;2023-05-14T12:39:53;12.10;;;4.13;;
52208;SDS011;38507;53.132;6.394;2023-05-14T12:42:19;12.00;;;4.75;;
52208;SDS011;38507;53.132;6.394;2023-05-14T12:44:45;12.98;;;3.58;;
52208;SDS011;38507;53.132;6.394;2023-05-14T12:47:10;9.70;;;4.07;;
52208;SDS011;38507;53.132;6.394;2023-05-14T12:49:36;10.00;;;3.88;;
52208;SDS011;38507;53.132;6.394;2023-05-14T12:52:02;9.23;;;3.72;;
52208;SDS011;38507;53.132;6.394;2023-05-14T12:54:28;10.90;;;4.05;;
52208;SDS011;38507;53.132;6.394;2023-05-14T12:56:55;11.68;;;4.45;;
52208;SDS011;38507;53.132;6.394;2023-05-14T12:59:21;9.88;;;4.80;;
52208;SDS011;38507;53.132;6.394;2023-05-14T13:01:47;11.10;;;4.35;;
52208;SDS011;38507;53.132;6.394;2023-05-14T13:04:13;9.57;;;4.25;;
52208;SDS011;38507;53.132;6.394;2023-05-14T13:06:38;7.97;;;4.07;;
52208;SDS011;38507;53.132;6.394;2023-05-14T13:09:05;14.68;;;4.57;;
52208;SDS011;38507;53.132;6.394;2023-05-14T13:11:31;11.15;;;4.45;;
52208;SDS011;38507;53.132;6.394;2023-05-14T13:13:57;11.15;;;4.03;;
52208;SDS011;38507;53.132;6.394;2023-05-14T13:16:24;8.52;;;4.20;;
52208;SDS011;38507;53.132;6.394;2023-05-14T13:18:51;11.88;;;4.70;;
52208;SDS011;38507;53.132;6.394;2023-05-14T13:21:17;9.95;;;4.30;;
52208;SDS011;38507;53.132;6.394;2023-05-14T13:23:43;11.65;;;4.30;;
52208;SDS011;38507;53.132;6.394;2023-05-14T13:26:08;10.20;;;4.35;;
52208;SDS011;38507;53.132;6.394;2023-05-14T13:28:34;11.85;;;4.30;;
52208;SDS011;38507;53.132;6.394;2023-05-14T13:31:06;10.65;;;4.13;;
52208;SDS011;38507;53.132;6.394;2023-05-14T13:33:43;10.40;;;4.30;;
52208;SDS011;38507;53.132;6.394;2023-05-14T13:36:09;8.38;;;3.78;;
52208;SDS011;38507;53.132;6.394;2023-05-14T13:38:38;10.25;;;4.57;;
52208;SDS011;38507;53.132;6.394;2023-05-14T13:41:04;9.18;;;4.63;;
52208;SDS011;38507;53.132;6.394;2023-05-14T13:43:30;8.70;;;4.55;;
52208;SDS011;38507;53.132;6.394;2023-05-14T13:45:58;7.72;;;4.85;;
52208;SDS011;38507;53.132;6.394;2023-05-14T13:48:24;14.23;;;4.78;;
52208;SDS011;38507;53.132;6.394;2023-05-14T13:50:50;9.18;;;3.63;;
52208;SDS011;38507;53.132;6.394;2023-05-14T13:53:16;11.35;;;4.72;;
52208;SDS011;38507;53.132;6.394;2023-05-14T13:55:45;8.38;;;4.57;;
52208;SDS011;38507;53.132;6.394;2023-05-14T13:58:11;10.38;;;3.97;;
52208;SDS011;38507;53.132;6.394;2023-05-14T14:00:37;9.20;;;3.80;;
52208;SDS011;38507;53.132;6.394;2023-05-14T14:03:03;10.07;;;4.43;;
52208;SDS011;38507;53.132;6.394;2023-05-14T14:05:29;7.22;;;3.75;;
52208;SDS011;38507;53.132;6.394;2023-05-14T14:07:55;9.02;;;3.40;;
52208;SDS011;38507;53.132;6.394;2023-05-14T14:10:21;9.38;;;3.53;;
52208;SDS011;38507;53.132;6.394;2023-05-14T14:12:47;6.03;;;3.25;;
52208;SDS011;38507;53.132;6.394;2023-05-14T14:15:13;4.65;;;3.35;;
52208;SDS011;38507;53.132;6.394;2023-05-14T14:17:39;7.15;;;3.78;;
52208;SDS011;38507;53.132;6.394;2023-05-14T14:20:08;10.48;;;4.13;;
52208;SDS011;38507;53.132;6.394;2023-05-14T14:22:34;8.63;;;3.30;;
52208;SDS011;38507;53.132;6.394;2023-05-14T14:25:00;6.35;;;3.30;;
52208;SDS011;38507;53.132;6.394;2023-05-14T14:27:26;9.68;;;3.58;;
52208;SDS011;38507;53.132;6.394;2023-05-14T14:29:52;5.72;;;3.33;;
52208;SDS011;38507;53.132;6.394;2023-05-14T14:32:17;9.82;;;3.97;;
52208;SDS011;38507;53.132;6.394;2023-05-14T14:34:44;10.15;;;4.18;;
52208;SDS011;38507;53.132;6.394;2023-05-14T14:37:10;11.82;;;4.35;;
52208;SDS011;38507;53.132;6.394;2023-05-14T14:39:35;8.38;;;4.13;;
52208;SDS011;38507;53.132;6.394;2023-05-14T14:42:01;13.38;;;5.20;;
52208;SDS011;38507;53.132;6.394;2023-05-14T14:44:27;13.77;;;5.30;;
52208;SDS011;38507;53.132;6.394;2023-05-14T14:46:52;10.07;;;4.25;;
52208;SDS011;38507;53.132;6.394;2023-05-14T14:49:18;12.73;;;4.60;;